Time;durP1;ratioP1;P1;durP2;ratioP2;P2;SDS_P1;SDS_P2;PMS_P1;PMS_P2;Temp;Humidity;BMP_temperature;BMP_pressure;BME280_temperature;BME280_humidity;BME280_pressure;Samples;Min_cycle;Max_cycle;Signal;HPM_P1;HPM_P2
2022/09/23 00:02:13;;;;;;;7.88;6.00;;;;;;;9.44;59.37;95686.25;5025094;28;20029;-81
2022/09/23 00:04:40;;;;;;;8.43;5.78;;;;;;;9.33;59.77;95685.59;5006644;28;20030;-81
2022/09/23 00:07:05;;;;;;;8.05;6.00;;;;;;;9.33;59.88;95684.75;5008334;28;20028;-81
2022/09/23 00:09:31;;;;;;;7.88;6.13;;;;;;;9.33;59.88;95684.75;5028446;28;20021;-81
2022/09/23 00:11:57;;;;;;;8.38;5.70;;;;;;;9.36;59.84;95687.09;5027556;28;20037;-81
2022/09/23 00:14:22;;;;;;;8.48;5.60;;;;;;;9.32;60.08;95688.44;5028959;28;20064;-81
2022/09/23 00:16:47;;;;;;;7.60;5.60;;;;;;;9.34;60.24;95673.88;5028485;28;20060;-81
2022/09/23 00:19:13;;;;;;;8.27;5.78;;;;;;;9.32;60.55;95677.72;5028535;28;20139;-81
2022/09/23 00:21:38;;;;;;;8.00;5.65;;;;;;;9.28;60.37;95677.19;5028551;28;20071;-81
2022/09/23 00:24:04;;;;;;;8.73;6.35;;;;;;;9.26;60.63;95673.84;5028878;28;20523;-81
2022/09/23 00:26:29;;;;;;;8.50;6.40;;;;;;;9.22;60.91;95675.19;5028168;28;20060;-81
2022/09/23 00:28:55;;;;;;;8.32;6.15;;;;;;;9.09;61.20;95675.63;5011003;28;20029;-81
2022/09/23 00:31:22;;;;;;;9.60;5.93;;;;;;;9.13;60.89;95676.97;5026922;28;20432;-81
2022/09/23 00:33:53;;;;;;;9.13;6.35;;;;;;;9.11;61.30;95670.94;5010667;28;20057;-81
2022/09/23 00:36:18;;;;;;;8.55;6.38;;;;;;;9.09;61.20;95667.59;5011285;28;20091;-81
2022/09/23 00:38:44;;;;;;;12.38;6.53;;;;;;;9.03;60.70;95669.91;5027025;28;20025;-81
2022/09/23 00:41:10;;;;;;;8.30;6.47;;;;;;;9.04;60.73;95670.78;5027256;28;20140;-80
2022/09/23 00:43:40;;;;;;;9.00;6.28;;;;;;;8.98;61.28;95660.72;5010209;28;20047;-80
2022/09/23 00:46:07;;;;;;;8.38;5.97;;;;;;;8.97;61.34;95667.03;5027406;28;20022;-81
2022/09/23 00:48:32;;;;;;;7.20;5.90;;;;;;;8.97;61.38;95665.22;5010297;28;20030;-79
2022/09/23 00:50:58;;;;;;;7.70;5.82;;;;;;;8.95;61.70;95667.22;5010473;28;20036;-79
2022/09/23 00:53:25;;;;;;;10.95;6.55;;;;;;;8.94;61.41;95668.22;5026898;28;20034;-79
2022/09/23 00:55:56;;;;;;;6.55;5.32;;;;;;;8.93;62.01;95658.50;5010331;28;20108;-79
2022/09/23 00:58:25;;;;;;;9.52;6.50;;;;;;;8.85;62.30;95661.16;5010363;28;20038;-79
2022/09/23 01:00:52;;;;;;;10.20;6.10;;;;;;;8.87;62.04;95664.50;5026500;28;20075;-79
2022/09/23 01:03:18;;;;;;;8.25;6.07;;;;;;;8.87;61.43;95654.66;5010681;28;20033;-79
2022/09/23 01:05:44;;;;;;;7.57;5.72;;;;;;;8.86;61.81;95671.69;5010309;28;20025;-80
2022/09/23 01:08:09;;;;;;;7.85;6.15;;;;;;;8.81;61.77;95668.66;5010640;28;20415;-80
2022/09/23 01:11:13;;;;;;;8.35;6.05;;;;;;;8.70;62.47;95663.59;5026486;28;20037;-80
2022/09/23 01:13:45;;;;;;;8.32;6.30;;;;;;;8.74;61.90;95668.47;5015591;28;20053;-79
2022/09/23 01:16:36;;;;;;;7.13;5.93;;;;;;;8.81;62.25;95670.50;5026583;28;20026;-79
2022/09/23 01:19:30;;;;;;;7.75;5.95;;;;;;;8.75;62.40;95670.13;5012187;28;20500;-81
2022/09/23 01:22:03;;;;;;;10.82;5.97;;;;;;;8.80;61.45;95671.50;5009659;28;20901;-81
2022/09/23 01:25:12;;;;;;;10.35;5.70;;;;;;;8.81;60.38;95666.00;5026436;28;20034;-79
2022/09/23 01:27:58;;;;;;;6.60;5.13;;;;;;;8.75;60.47;95672.81;5024649;28;20041;-80
2022/09/23 01:30:40;;;;;;;9.13;5.35;;;;;;;8.74;60.72;95672.97;5008180;28;20132;-82
2022/09/23 01:33:10;;;;;;;8.40;5.55;;;;;;;8.58;61.42;95671.03;5010027;28;20128;-80
2022/09/23 01:36:02;;;;;;;6.78;5.68;;;;;;;8.57;61.75;95680.91;5009688;28;20984;-80
2022/09/23 01:38:33;;;;;;;9.27;5.90;;;;;;;8.62;61.65;95685.78;5027956;28;20049;-80
2022/09/23 01:41:15;;;;;;;9.52;5.78;;;;;;;8.63;60.87;95682.09;5027473;28;20029;-80
2022/09/23 01:43:49;;;;;;;7.28;5.78;;;;;;;8.51;61.36;95678.84;5026303;28;20029;-80
2022/09/23 01:46:46;;;;;;;6.85;5.65;;;;;;;8.45;61.57;95682.97;5026032;28;20032;-80
2022/09/23 01:49:22;;;;;;;10.88;6.55;;;;;;;8.37;61.79;95691.78;5026521;28;20076;-80
2022/09/23 01:52:04;;;;;;;8.57;6.20;;;;;;;8.38;61.81;95695.31;5027357;28;20461;-81
2022/09/23 01:54:38;;;;;;;10.48;6.65;;;;;;;8.40;61.87;95691.47;5027442;28;20393;-80
2022/09/23 01:57:10;;;;;;;11.02;6.18;;;;;;;8.36;62.36;95690.09;5025783;28;20099;-79
2022/09/23 01:59:37;;;;;;;8.55;6.88;;;;;;;8.36;62.24;95689.25;5009819;28;20412;-80
2022/09/23 02:02:14;;;;;;;9.73;7.07;;;;;;;8.30;62.53;95682.72;5025212;28;20026;-80
2022/09/23 02:04:44;;;;;;;9.32;6.85;;;;;;;8.24;63.12;95686.84;5010736;28;20072;-80
2022/09/23 02:07:31;;;;;;;12.38;7.00;;;;;;;8.20;63.35;95687.31;5009326;28;20091;-80
2022/09/23 02:10:21;;;;;;;9.43;7.10;;;;;;;8.23;63.64;95692.34;5011253;28;20118;-80
2022/09/23 02:12:48;;;;;;;9.98;6.90;;;;;;;8.25;63.40;95691.19;5026956;28;20036;-80
2022/09/23 02:15:16;;;;;;;11.35;7.32;;;;;;;8.26;63.76;95684.00;5008405;28;20472;-80
2022/09/23 02:17:51;;;;;;;10.68;7.32;;;;;;;8.31;63.43;95686.22;5009305;28;20339;-80
2022/09/23 02:20:19;;;;;;;9.73;6.60;;;;;;;8.22;63.52;95688.00;5008941;28;20028;-81
2022/09/23 02:22:51;;;;;;;9.30;6.75;;;;;;;8.24;64.05;95689.50;5024875;28;20029;-80
2022/09/23 02:25:16;;;;;;;9.52;5.82;;;;;;;8.22;64.28;95686.16;4992539;28;20026;-79
2022/09/23 02:27:54;;;;;;;9.52;6.30;;;;;;;8.25;63.97;95695.72;4991953;28;20025;-81
2022/09/23 02:30:21;;;;;;;9.77;5.75;;;;;;;8.24;63.88;95691.34;5024582;28;20484;-80
2022/09/23 02:32:59;;;;;;;7.80;5.90;;;;;;;8.25;63.86;95690.38;5008800;28;20026;-80
2022/09/23 02:35:36;;;;;;;8.57;5.90;;;;;;;8.26;63.60;95694.69;5024809;28;20036;-82
2022/09/23 02:38:32;;;;;;;8.75;6.03;;;;;;;8.22;63.75;95688.00;5024975;28;20048;-79
2022/09/23 02:41:06;;;;;;;8.85;6.18;;;;;;;8.14;63.93;95696.81;5009013;28;20159;-80
2022/09/23 02:43:47;;;;;;;7.65;5.55;;;;;;;8.11;63.84;95691.78;5009224;28;20531;-81
2022/09/23 02:46:12;;;;;;;10.95;6.60;;;;;;;8.07;63.12;95693.06;5024523;28;20044;-81
2022/09/23 02:48:44;;;;;;;8.93;6.28;;;;;;;8.06;62.69;95688.72;5008155;28;20021;-81
2022/09/23 02:51:09;;;;;;;11.45;6.30;;;;;;;8.04;63.13;95692.38;5009004;28;20480;-80
2022/09/23 02:53:35;;;;;;;8.80;6.70;;;;;;;8.04;63.66;95697.72;5023854;28;20044;-80
2022/09/23 02:56:01;;;;;;;11.60;6.03;;;;;;;8.03;63.53;95700.53;5025098;28;20404;-81
2022/09/23 02:58:26;;;;;;;10.60;6.93;;;;;;;8.03;62.56;95696.03;5024920;28;20026;-81
2022/09/23 03:00:58;;;;;;;7.78;6.10;;;;;;;7.97;63.16;95696.66;5008594;28;20021;-79
2022/09/23 03:03:49;;;;;;;10.50;6.68;;;;;;;7.95;61.34;95701.31;5025384;28;20033;-80
2022/09/23 03:06:53;;;;;;;9.50;5.93;;;;;;;7.83;62.37;95694.53;5024070;28;20042;-80
2022/09/23 03:09:24;;;;;;;12.20;6.50;;;;;;;7.79;62.80;95694.84;5024691;28;20025;-80
2022/09/23 03:12:14;;;;;;;10.40;6.63;;;;;;;7.76;62.13;95697.81;5007795;28;20040;-81
2022/09/23 03:14:49;;;;;;;10.02;7.15;;;;;;;7.69;63.09;95694.06;5001045;28;20037;-79
2022/09/23 03:17:28;;;;;;;9.07;6.57;;;;;;;7.67;63.29;95691.56;5024420;28;20116;-80
2022/09/23 03:20:11;;;;;;;11.57;6.53;;;;;;;7.67;63.15;95699.56;5023842;28;20018;-80
2022/09/23 03:22:39;;;;;;;9.30;6.50;;;;;;;7.63;63.70;95700.88;5009115;28;20439;-81
2022/09/23 03:25:07;;;;;;;9.15;6.82;;;;;;;7.63;64.25;95694.69;5007820;28;20065;-81
2022/09/23 03:27:33;;;;;;;13.48;7.18;;;;;;;7.62;64.10;95701.03;5007506;28;20029;-81
2022/09/23 03:29:59;;;;;;;9.10;6.20;;;;;;;7.62;64.10;95698.34;5007538;28;20033;-80
2022/09/23 03:32:26;;;;;;;11.52;6.50;;;;;;;7.63;63.71;95700.88;5024263;28;20037;-83
2022/09/23 03:34:52;;;;;;;10.23;6.57;;;;;;;7.66;63.88;95699.72;5007854;28;20501;-80
2022/09/23 03:37:36;;;;;;;10.10;6.53;;;;;;;7.63;63.60;95694.69;5012622;28;20018;-80
2022/09/23 03:40:07;;;;;;;8.65;6.53;;;;;;;7.59;63.87;95695.97;5024513;28;20104;-81
2022/09/23 03:42:33;;;;;;;9.93;7.10;;;;;;;7.55;63.70;95692.78;5024278;28;20025;-80
2022/09/23 03:45:00;;;;;;;9.07;6.68;;;;;;;7.54;64.24;95699.94;5024405;28;20123;-80
2022/09/23 03:47:26;;;;;;;8.98;6.78;;;;;;;7.58;64.26;95703.16;5024181;28;20040;-80
2022/09/23 03:49:52;;;;;;;10.40;6.80;;;;;;;7.57;63.86;95700.63;5007796;28;20025;-80
2022/09/23 03:52:19;;;;;;;9.25;6.38;;;;;;;7.64;64.16;95707.88;5007843;28;20040;-80
2022/09/23 03:54:44;;;;;;;9.45;6.47;;;;;;;7.66;63.67;95710.38;5022502;28;20026;-79
2022/09/23 03:57:10;;;;;;;7.53;5.90;;;;;;;7.68;64.08;95713.75;5024072;28;20030;-79
2022/09/23 03:59:36;;;;;;;10.93;7.15;;;;;;;7.67;64.48;95709.41;5023125;28;20096;-79
2022/09/23 04:02:02;;;;;;;12.52;7.05;;;;;;;7.64;64.45;95712.41;5024671;28;20021;-80
2022/09/23 04:04:28;;;;;;;9.90;7.18;;;;;;;7.65;64.39;95709.56;5023609;28;20033;-81
2022/09/23 04:06:54;;;;;;;9.52;7.05;;;;;;;7.62;63.96;95711.69;5006906;28;20033;-81
2022/09/23 04:09:20;;;;;;;10.25;6.90;;;;;;;7.58;64.36;95710.34;5024073;28;20029;-81
2022/09/23 04:11:48;;;;;;;11.00;7.40;;;;;;;7.57;64.62;95711.31;5006465;28;20030;-80
2022/09/23 04:14:13;;;;;;;9.63;7.30;;;;;;;7.61;65.69;95718.03;5025039;28;20416;-81
2022/09/23 04:16:39;;;;;;;11.05;7.43;;;;;;;7.57;65.61;95716.66;5022386;28;20032;-81
2022/09/23 04:19:05;;;;;;;10.80;8.02;;;;;;;7.59;66.28;95725.34;5023994;28;20433;-80
2022/09/23 04:21:30;;;;;;;10.70;8.05;;;;;;;7.67;66.56;95720.09;5024913;28;20401;-80
2022/09/23 04:23:56;;;;;;;13.70;8.05;;;;;;;7.71;66.58;95723.28;5023422;28;20041;-81
2022/09/23 04:26:21;;;;;;;10.00;7.88;;;;;;;7.71;66.93;95718.78;5024828;28;20029;-81
2022/09/23 04:28:46;;;;;;;11.27;8.07;;;;;;;7.78;67.12;95725.22;5022617;28;20021;-81
2022/09/23 04:31:12;;;;;;;13.07;8.35;;;;;;;7.84;67.74;95729.09;5023495;28;20069;-79
2022/09/23 04:33:37;;;;;;;12.07;8.43;;;;;;;7.82;67.75;95735.59;5023590;28;20021;-78
2022/09/23 04:36:03;;;;;;;13.85;8.23;;;;;;;7.89;68.67;95729.47;5023588;28;20036;-80
2022/09/23 04:38:28;;;;;;;13.65;8.07;;;;;;;7.89;68.27;95720.63;5024228;28;20032;-80
2022/09/23 04:40:54;;;;;;;8.77;6.85;;;;;;;7.92;69.60;95731.00;5023462;28;20029;-80
2022/09/23 04:43:22;;;;;;;10.65;7.60;;;;;;;7.75;70.62;95735.34;5024354;28;20026;-80
2022/09/23 04:45:56;;;;;;;10.70;7.25;;;;;;;7.62;71.54;95749.06;5007065;28;20034;-80
2022/09/23 04:48:21;;;;;;;10.93;7.20;;;;;;;7.76;71.24;95739.69;5023340;28;20072;-80
2022/09/23 04:50:47;;;;;;;10.05;7.50;;;;;;;7.65;71.60;95748.78;5024345;28;20060;-79
2022/09/23 04:53:13;;;;;;;12.30;7.57;;;;;;;7.69;71.56;95742.13;5007656;28;20550;-79
2022/09/23 04:55:40;;;;;;;11.35;8.00;;;;;;;7.77;71.30;95734.19;5026490;28;20056;-79
2022/09/23 04:58:07;;;;;;;10.68;7.32;;;;;;;7.91;70.75;95745.34;5028183;28;20083;-79
2022/09/23 05:00:33;;;;;;;12.40;8.07;;;;;;;7.95;70.40;95736.03;5026380;28;20028;-80
2022/09/23 05:02:58;;;;;;;10.68;7.40;;;;;;;8.07;69.78;95735.81;5010240;28;20021;-80
2022/09/23 05:05:24;;;;;;;11.00;7.22;;;;;;;8.14;69.63;95739.56;5028016;28;20025;-80
2022/09/23 05:07:50;;;;;;;10.48;8.00;;;;;;;8.14;69.60;95736.88;5027628;28;20026;-80
2022/09/23 05:10:15;;;;;;;10.68;6.93;;;;;;;8.27;68.97;95739.97;5009953;28;20143;-79
2022/09/23 05:12:41;;;;;;;10.52;8.43;;;;;;;8.28;68.65;95741.66;5009426;28;20526;-80
2022/09/23 05:15:06;;;;;;;11.25;8.10;;;;;;;8.19;69.09;95741.75;5026656;28;20022;-80
2022/09/23 05:17:32;;;;;;;11.48;7.65;;;;;;;8.33;68.49;95743.03;5027173;28;20674;-80
2022/09/23 05:19:58;;;;;;;11.60;7.40;;;;;;;8.21;68.43;95745.94;5010294;28;20045;-80
2022/09/23 05:22:28;;;;;;;9.93;8.02;;;;;;;8.32;68.81;95742.19;5009876;28;20435;-79
2022/09/23 05:24:53;;;;;;;10.98;8.23;;;;;;;8.22;68.84;95744.94;5009500;28;20075;-79
2022/09/23 05:27:19;;;;;;;11.20;7.70;;;;;;;8.27;68.56;95745.31;5026266;28;20444;-79
2022/09/23 05:29:45;;;;;;;11.70;7.90;;;;;;;8.25;68.58;95749.97;5009020;28;20451;-79
2022/09/23 05:32:11;;;;;;;12.02;7.93;;;;;;;8.29;68.68;95754.03;5027342;28;20025;-79
2022/09/23 05:34:36;;;;;;;11.90;7.95;;;;;;;8.40;68.41;95755.59;5026784;28;20484;-80
2022/09/23 05:37:02;;;;;;;12.93;8.98;;;;;;;8.36;68.63;95758.75;5027359;28;20484;-80
2022/09/23 05:39:28;;;;;;;12.15;8.43;;;;;;;8.48;67.89;95760.16;5025690;28;20431;-80
2022/09/23 05:41:54;;;;;;;12.80;8.65;;;;;;;8.43;67.79;95757.13;5025759;28;20124;-80
2022/09/23 05:44:19;;;;;;;11.60;8.63;;;;;;;8.65;67.18;95754.97;5025809;28;20017;-81
2022/09/23 05:46:45;;;;;;;10.57;7.90;;;;;;;8.68;67.13;95762.69;5027098;28;20033;-81
2022/09/23 05:49:10;;;;;;;10.55;7.43;;;;;;;8.73;67.18;95756.88;5026972;28;20030;-79
2022/09/23 05:51:36;;;;;;;13.38;8.63;;;;;;;8.85;66.85;95757.47;5026254;28;20440;-79
2022/09/23 05:54:02;;;;;;;12.52;7.88;;;;;;;8.93;66.28;95756.66;5009147;28;20056;-79
2022/09/23 05:56:29;;;;;;;10.43;7.88;;;;;;;9.01;66.48;95760.19;5008274;28;20061;-80
2022/09/23 05:58:55;;;;;;;10.02;7.43;;;;;;;9.06;65.86;95753.56;5009145;28;20488;-81
2022/09/23 06:01:26;;;;;;;10.35;7.50;;;;;;;9.10;65.22;95761.09;5008658;28;20048;-80
2022/09/23 06:03:55;;;;;;;10.50;7.70;;;;;;;9.32;64.86;95763.38;5026543;28;20032;-80
2022/09/23 06:06:35;;;;;;;11.20;8.13;;;;;;;9.32;65.18;95748.13;5024500;28;20087;-79
2022/09/23 06:09:00;;;;;;;9.13;7.32;;;;;;;9.33;65.13;95754.34;5008466;28;20408;-80
2022/09/23 06:11:28;;;;;;;9.93;6.82;;;;;;;9.39;64.76;95751.00;5026666;28;20025;-80
2022/09/23 06:13:54;;;;;;;9.77;7.25;;;;;;;9.35;64.97;95749.66;5008482;28;20029;-79
2022/09/23 06:16:20;;;;;;;8.95;6.70;;;;;;;9.51;64.74;95760.41;5008906;28;20046;-79
2022/09/23 06:18:45;;;;;;;11.90;7.25;;;;;;;9.51;64.50;95749.69;4992215;28;20492;-78
2022/09/23 06:21:13;;;;;;;10.15;7.38;;;;;;;9.52;64.19;95743.38;5026387;28;20541;-79
2022/09/23 06:23:39;;;;;;;10.38;5.93;;;;;;;9.40;65.06;95760.72;5025430;28;20026;-80
2022/09/23 06:26:05;;;;;;;8.18;6.35;;;;;;;9.37;65.51;95753.84;5007812;28;20087;-79
2022/09/23 06:28:32;;;;;;;8.05;6.22;;;;;;;9.19;66.13;95753.94;5008659;28;20118;-79
2022/09/23 06:30:58;;;;;;;9.43;6.35;;;;;;;9.20;65.84;95752.94;5023962;28;20100;-79
2022/09/23 06:33:25;;;;;;;7.57;6.25;;;;;;;9.26;65.41;95752.31;5026187;28;20444;-78
2022/09/23 06:35:57;;;;;;;9.10;6.30;;;;;;;9.24;65.26;95751.63;5026011;28;20029;-79
2022/09/23 06:38:23;;;;;;;9.82;5.93;;;;;;;9.24;65.28;95756.13;5026019;28;20105;-79
2022/09/23 06:40:50;;;;;;;9.95;6.70;;;;;;;9.14;65.27;95753.59;5024904;28;20033;-80
2022/09/23 06:43:15;;;;;;;10.25;5.88;;;;;;;9.26;65.21;95764.84;5024463;28;20108;-79
2022/09/23 06:45:41;;;;;;;8.82;6.60;;;;;;;9.47;64.85;95755.56;5024686;28;20445;-80
2022/09/23 06:48:07;;;;;;;9.23;6.10;;;;;;;9.67;63.72;95752.59;5025227;28;20025;-80
2022/09/23 06:50:32;;;;;;;7.38;5.38;;;;;;;9.95;62.65;95765.72;5024799;28;20025;-80
2022/09/23 06:52:58;;;;;;;7.50;5.70;;;;;;;10.19;62.39;95761.41;5025330;28;20036;-80
2022/09/23 06:55:26;;;;;;;7.47;5.40;;;;;;;10.49;61.17;95765.28;5024338;28;20028;-81
2022/09/23 06:57:51;;;;;;;7.28;5.43;;;;;;;10.31;62.07;95773.47;5008312;28;20025;-79
2022/09/23 07:00:17;;;;;;;6.93;5.15;;;;;;;10.32;60.95;95767.09;5024387;28;20021;-80
2022/09/23 07:02:42;;;;;;;6.55;5.30;;;;;;;10.31;61.50;95764.59;5008090;28;20056;-80
2022/09/23 07:05:08;;;;;;;6.75;5.47;;;;;;;10.47;61.35;95775.34;5023611;28;20025;-79
2022/09/23 07:07:36;;;;;;;9.20;5.20;;;;;;;10.55;61.61;95773.66;5024372;28;20037;-78
2022/09/23 07:10:04;;;;;;;7.55;5.40;;;;;;;10.56;61.09;95781.53;5023552;28;20518;-79
2022/09/23 07:12:30;;;;;;;10.40;5.82;;;;;;;10.51;60.75;95776.69;5008028;28;20416;-78
2022/09/23 07:14:56;;;;;;;7.60;5.25;;;;;;;10.33;61.13;95779.50;5025149;28;20492;-78
2022/09/23 07:17:23;;;;;;;7.25;5.70;;;;;;;10.38;61.35;95779.00;5024445;28;20044;-79
2022/09/23 07:19:48;;;;;;;9.80;6.20;;;;;;;10.65;61.21;95784.22;5024039;28;20508;-79
2022/09/23 07:22:14;;;;;;;6.78;5.65;;;;;;;10.78;60.50;95781.88;5023540;28;20021;-80
2022/09/23 07:24:39;;;;;;;6.70;5.70;;;;;;;10.69;60.89;95774.84;5025716;28;20021;-79
2022/09/23 07:27:04;;;;;;;7.65;5.22;;;;;;;10.75;60.26;95774.16;5036342;28;20033;-80
2022/09/23 07:29:30;;;;;;;7.38;5.30;;;;;;;10.83;60.32;95766.06;5024747;28;20412;-79
2022/09/23 07:31:55;;;;;;;7.05;4.95;;;;;;;11.11;59.17;95770.22;5026618;28;20045;-79
2022/09/23 07:34:21;;;;;;;7.78;5.00;;;;;;;11.20;59.08;95779.94;5035008;28;20033;-82
2022/09/23 07:36:46;;;;;;;6.70;4.82;;;;;;;11.59;57.79;95774.75;5014936;28;20091;-80
2022/09/23 07:39:12;;;;;;;7.97;4.90;;;;;;;11.19;57.70;95780.94;5033327;28;20021;-79
2022/09/23 07:41:37;;;;;;;9.40;4.80;;;;;;;11.08;57.63;95783.97;5031450;28;20025;-79
2022/09/23 07:44:04;;;;;;;7.82;4.38;;;;;;;10.90;57.47;95782.34;5030136;28;20076;-79
2022/09/23 07:46:31;;;;;;;9.18;4.75;;;;;;;11.00;56.41;95783.00;5016017;28;20025;-79
2022/09/23 07:48:57;;;;;;;6.35;4.90;;;;;;;10.71;57.44;95781.69;5031110;28;20032;-79
2022/09/23 07:51:28;;;;;;;12.13;4.65;;;;;;;10.67;57.60;95788.41;5001487;28;20022;-80
2022/09/23 07:53:53;;;;;;;5.20;3.95;;;;;;;10.84;57.04;95786.56;5028197;28;20033;-81
2022/09/23 07:56:19;;;;;;;6.80;3.97;;;;;;;10.90;56.64;95785.00;5025045;28;20026;-85
2022/09/23 07:58:45;;;;;;;7.78;4.70;;;;;;;10.81;57.20;95784.22;5029497;28;20033;-87
2022/09/23 08:01:11;;;;;;;6.35;4.75;;;;;;;10.91;56.54;95786.72;5034072;28;20094;-85
2022/09/23 08:03:37;;;;;;;5.05;4.10;;;;;;;11.10;56.13;95784.66;5034173;28;20037;-83
2022/09/23 08:06:08;;;;;;;5.70;4.35;;;;;;;11.36;55.80;95791.63;5032215;28;20108;-86
2022/09/23 08:08:34;;;;;;;6.35;5.05;;;;;;;11.34;56.23;95790.97;5037382;28;20067;-86
2022/09/23 08:11:03;;;;;;;5.20;4.03;;;;;;;11.35;55.98;95795.31;5033649;28;20028;-84
2022/09/23 08:13:29;;;;;;;6.10;4.32;;;;;;;11.64;54.81;95793.03;5012360;28;20044;-85
2022/09/23 08:15:55;;;;;;;5.35;3.97;;;;;;;11.48;54.83;95789.38;5016055;28;20029;-85
2022/09/23 08:18:20;;;;;;;4.80;3.70;;;;;;;11.64;53.88;95795.72;5020440;28;20036;-84
2022/09/23 08:20:46;;;;;;;7.93;4.13;;;;;;;11.64;53.91;95777.72;5041475;28;20032;-80
2022/09/23 08:23:13;;;;;;;4.93;3.75;;;;;;;11.46;54.43;95778.00;5037857;28;20025;-83
2022/09/23 08:25:39;;;;;;;4.68;3.65;;;;;;;11.42;54.73;95785.56;5023311;28;20029;-81
2022/09/23 08:28:05;;;;;;;5.88;3.45;;;;;;;11.41;54.86;95791.97;5015769;28;20037;-89
2022/09/23 08:30:30;;;;;;;6.15;3.78;;;;;;;11.66;54.48;95778.41;5021077;28;20033;-83
2022/09/23 08:32:57;;;;;;;5.75;3.58;;;;;;;11.75;53.29;95774.66;5041456;28;20053;-82
2022/09/23 08:35:22;;;;;;;5.00;4.03;;;;;;;11.89;53.05;95780.31;5037592;28;20040;-81
2022/09/23 08:37:49;;;;;;;6.57;3.97;;;;;;;12.02;52.82;95779.72;5039314;28;20028;-82
2022/09/23 08:40:15;;;;;;;4.97;4.03;;;;;;;12.24;52.97;95772.72;5002604;28;20047;-82
2022/09/23 08:42:41;;;;;;;6.30;3.50;;;;;;;12.00;53.61;95776.38;5012648;28;20022;-81
2022/09/23 08:45:07;;;;;;;5.70;3.70;;;;;;;12.00;52.97;95776.38;5020755;28;20025;-81
2022/09/23 08:47:52;;;;;;;4.57;3.35;;;;;;;12.26;51.64;95775.22;5016980;28;20040;-80
2022/09/23 08:50:17;;;;;;;4.47;3.38;;;;;;;12.45;50.83;95781.97;5034400;28;20017;-90
2022/09/23 08:52:49;;;;;;;4.80;3.20;;;;;;;12.41;51.19;95771.75;5034858;28;20033;-91
2022/09/23 08:55:14;;;;;;;5.25;3.17;;;;;;;12.24;51.88;95780.78;5033577;28;20029;-83
2022/09/23 08:58:06;;;;;;;6.65;3.38;;;;;;;12.43;51.21;95775.94;5025286;28;20448;-83
2022/09/23 09:01:07;;;;;;;4.13;3.00;;;;;;;12.62;48.86;95765.72;5046041;28;20029;-83
2022/09/23 09:04:02;;;;;;;4.85;3.17;;;;;;;12.37;50.04;95765.91;5046652;28;20045;-84
2022/09/23 09:06:36;;;;;;;5.78;2.88;;;;;;;12.46;49.19;95758.63;5045307;28;20039;-85
2022/09/23 09:09:03;;;;;;;3.92;2.80;;;;;;;12.49;49.71;95756.38;5046370;28;20082;-84
2022/09/23 09:11:37;;;;;;;7.03;2.92;;;;;;;12.25;50.54;95757.44;5046672;28;20031;-85
2022/09/23 09:14:25;;;;;;;3.92;2.83;;;;;;;12.59;50.88;95749.94;5029825;28;20090;-84
2022/09/23 09:17:00;;;;;;;3.92;3.00;;;;;;;12.84;49.75;95755.06;5046886;28;20561;-85
2022/09/23 09:19:39;;;;;;;4.50;2.95;;;;;;;12.97;49.95;95759.81;5029311;28;20036;-83
2022/09/23 09:22:05;;;;;;;5.35;2.95;;;;;;;12.77;49.58;95754.16;5046549;28;20036;-84
2022/09/23 09:24:34;;;;;;;6.13;2.80;;;;;;;12.67;50.03;95760.59;5029339;28;20383;-84
2022/09/23 09:27:10;;;;;;;3.70;2.88;;;;;;;12.79;49.77;95749.41;5047882;28;20115;-83
2022/09/23 09:29:39;;;;;;;5.90;2.92;;;;;;;12.72;49.61;95763.59;5030104;28;20457;-84
2022/09/23 09:32:25;;;;;;;6.18;3.20;;;;;;;12.63;50.13;95759.31;5029135;28;20179;-84
2022/09/23 09:34:54;;;;;;;3.85;2.80;;;;;;;12.61;49.49;95761.34;5031549;28;20123;-84
2022/09/23 09:37:30;;;;;;;5.47;3.33;;;;;;;12.56;49.19;95761.03;5028879;28;20025;-84
2022/09/23 09:39:55;;;;;;;3.95;2.70;;;;;;;12.57;48.89;95760.88;5045037;28;20036;-84
2022/09/23 09:42:36;;;;;;;3.85;2.90;;;;;;;12.67;49.05;95763.28;5045592;28;20033;-84
2022/09/23 09:45:03;;;;;;;3.67;2.88;;;;;;;12.89;48.40;95763.44;5030217;28;20021;-84
2022/09/23 09:47:45;;;;;;;4.70;2.60;;;;;;;13.00;48.83;95764.00;5029431;28;20451;-83
2022/09/23 09:50:20;;;;;;;5.80;2.72;;;;;;;13.34;47.01;95759.94;5046377;28;20025;-84
2022/09/23 09:52:45;;;;;;;4.35;2.65;;;;;;;13.29;46.43;95767.72;5030886;28;20048;-85
2022/09/23 09:55:13;;;;;;;4.75;2.72;;;;;;;13.34;45.57;95759.94;5045261;28;20029;-85
2022/09/23 09:57:41;;;;;;;3.35;2.30;;;;;;;13.26;44.97;95749.25;5047208;28;20032;-84
2022/09/23 10:00:25;;;;;;;4.13;2.20;;;;;;;13.41;45.59;95755.44;5047195;28;20036;-85
2022/09/23 10:02:53;;;;;;;3.97;2.00;;;;;;;13.51;44.03;95752.50;5046052;28;20024;-84
2022/09/23 10:05:44;;;;;;;3.70;2.42;;;;;;;13.38;44.71;95760.41;5012562;28;20430;-85
2022/09/23 10:08:34;;;;;;;3.67;2.53;;;;;;;13.45;44.65;95755.91;5045991;28;20041;-85
2022/09/23 10:11:01;;;;;;;2.90;2.15;;;;;;;13.07;45.54;95755.00;5044851;28;20114;-83
2022/09/23 10:13:29;;;;;;;5.47;2.58;;;;;;;13.37;46.56;95746.09;5045595;28;20415;-83
2022/09/23 10:15:55;;;;;;;4.28;2.40;;;;;;;13.39;45.36;95741.34;5044639;28;20458;-82
2022/09/23 10:18:36;;;;;;;3.08;2.10;;;;;;;13.46;44.03;95742.25;5029105;28;20033;-83
2022/09/23 10:21:08;;;;;;;4.05;2.25;;;;;;;13.74;42.81;95748.00;5044854;28;20033;-84
2022/09/23 10:23:38;;;;;;;3.90;2.15;;;;;;;13.70;42.84;95740.28;5045250;28;20400;-84
2022/09/23 10:26:05;;;;;;;4.88;1.77;;;;;;;13.70;42.81;95726.00;5029395;28;20059;-85
2022/09/23 10:28:46;;;;;;;2.67;1.88;;;;;;;13.54;43.66;95730.56;5027637;28;20036;-84
2022/09/23 10:31:13;;;;;;;2.63;1.50;;;;;;;13.64;41.25;95726.75;5045543;28;20542;-83
2022/09/23 10:33:40;;;;;;;2.30;1.40;;;;;;;13.82;41.45;95731.72;5045566;28;20029;-84
2022/09/23 10:36:09;;;;;;;3.67;1.23;;;;;;;14.17;40.99;95723.78;5028984;28;20108;-84
2022/09/23 10:38:34;;;;;;;4.05;1.70;;;;;;;14.30;40.27;95717.69;5028400;28;20029;-86
2022/09/23 10:47:16;;;;;;;2.58;1.83;;;;;;;14.26;39.32;95710.19;5044901;28;20028;-84
2022/09/23 10:50:19;;;;;;;3.13;1.45;;;;;;;14.16;40.70;95705.09;5044563;28;20493;-84
2022/09/23 10:52:56;;;;;;;3.25;1.75;;;;;;;14.32;39.57;95717.50;5026848;28;20420;-85
2022/09/23 10:55:43;;;;;;;4.05;1.63;;;;;;;14.39;38.64;95704.91;5041699;28;20535;-84
2022/09/23 10:58:22;;;;;;;2.70;1.73;;;;;;;14.44;39.06;95705.13;5046179;28;20040;-84
2022/09/23 11:00:50;;;;;;;2.28;1.30;;;;;;;14.61;38.84;95693.22;5045011;28;20037;-83
2022/09/23 11:03:34;;;;;;;3.10;1.60;;;;;;;14.61;39.02;95688.66;5045164;28;20068;-84
2022/09/23 11:06:15;;;;;;;2.72;1.77;;;;;;;14.07;40.00;95689.03;5046309;28;20518;-84
2022/09/23 11:09:18;;;;;;;3.05;1.77;;;;;;;14.21;40.41;95695.41;5044445;28;20123;-85
2022/09/23 11:12:02;;;;;;;3.10;2.05;;;;;;;14.55;40.85;95694.84;5027252;28;20476;-83
2022/09/23 11:14:39;;;;;;;2.72;2.13;;;;;;;14.62;39.88;95693.03;5044595;28;20571;-83
2022/09/23 11:17:32;;;;;;;2.47;1.77;;;;;;;14.91;38.82;95680.38;5045322;28;20086;-84
2022/09/23 11:20:25;;;;;;;2.80;1.77;;;;;;;15.13;37.81;95672.22;5044262;28;20135;-85
2022/09/23 11:22:56;;;;;;;;;;;;;;;15.39;38.09;95676.06;5046561;28;20043;-84
2022/09/23 11:25:49;;;;;;;7.18;1.80;;;;;;;15.33;38.11;95677.69;5045076;28;19913;-85
2022/09/23 11:28:50;;;;;;;3.25;1.75;;;;;;;14.89;39.22;95679.78;5044891;28;20039;-85
2022/09/23 11:31:42;;;;;;;4.93;1.77;;;;;;;15.37;38.56;95678.13;5044579;28;20056;-85
2022/09/23 11:34:14;;;;;;;2.63;1.60;;;;;;;15.25;38.15;95663.53;5043205;28;20033;-84
2022/09/23 11:36:40;;;;;;;;;;;;;;;15.44;38.21;95667.34;5045549;28;20029;-83
2022/09/23 11:39:24;;;;;;;3.28;1.85;;;;;;;15.76;37.70;95674.94;5046596;28;19924;-84
2022/09/23 11:41:51;;;;;;;6.13;1.65;;;;;;;15.66;37.98;95670.75;5027464;28;20466;-84
2022/09/23 11:44:22;;;;;;;2.53;1.70;;;;;;;15.57;37.47;95655.75;5011484;28;20115;-85
2022/09/23 11:46:50;;;;;;;2.72;1.75;;;;;;;15.65;37.56;95655.56;5026624;28;20028;-85
2022/09/23 11:49:29;;;;;;;4.55;1.60;;;;;;;15.93;37.18;95660.00;5049546;28;20036;-84
2022/09/23 11:51:59;;;;;;;3.10;1.48;;;;;;;16.21;37.81;95660.06;5030370;28;20033;-87
2022/09/23 11:54:44;;;;;;;3.17;1.50;;;;;;;16.31;37.13;95663.19;5044542;28;20184;-87
2022/09/23 11:57:18;;;;;;;4.30;1.80;;;;;;;16.02;38.46;95665.25;5040725;28;20025;-87
2022/09/23 11:59:50;;;;;;;9.85;1.90;;;;;;;16.17;40.91;95665.88;5020877;28;20025;-85
2022/09/23 12:02:52;;;;;;;2.43;1.43;;;;;;;16.46;40.29;95665.69;5022833;28;20555;-86